Qingdao, China
Current Conditions -  °F | °C
As of 9:00 PM on Wednesday 26 Nov 2014 (Local Time) from ZSQD Reporting Station
Haze Haze  
Wind Chill: 46°   Ceiling: Unl
Heat Index: 46°   Visibility: 1.8mi
Dew Point: 39°   Wind: 2mph
Humidity: 76%   Direction: 180°S
Pressure: 30.12"   Gusts: NA
Location:  36.07°N, 120.32°E
Report Text: ZSQD 261300Z 18001MPS 3000 BR NSC 08/04 Q1020 NOSIG
Loading
Personal Weather Stations






























Interactive Weather Map New forecast layout! Learn more

10-Day Weather Forecast

Advertisements
Track Severe Weather on mobile